sensor_id;sensor_type;location;lat;lon;timestamp;P1;durP1;ratioP1;P2;durP2;ratioP2
5688;SDS011;2869;50.432;8.680;2022-08-19T00:00:01;25.40;;;17.60;;
5688;SDS011;2869;50.432;8.680;2022-08-19T00:02:28;25.90;;;18.17;;
5688;SDS011;2869;50.432;8.680;2022-08-19T00:04:55;26.00;;;17.83;;
5688;SDS011;2869;50.432;8.680;2022-08-19T00:07:21;25.23;;;16.83;;
5688;SDS011;2869;50.432;8.680;2022-08-19T00:09:48;23.00;;;17.37;;
5688;SDS011;2869;50.432;8.680;2022-08-19T00:12:16;24.38;;;18.20;;
5688;SDS011;2869;50.432;8.680;2022-08-19T00:14:43;28.13;;;17.47;;
5688;SDS011;2869;50.432;8.680;2022-08-19T00:17:09;23.83;;;18.20;;
5688;SDS011;2869;50.432;8.680;2022-08-19T00:19:36;26.77;;;18.00;;
5688;SDS011;2869;50.432;8.680;2022-08-19T00:22:04;25.25;;;17.15;;
5688;SDS011;2869;50.432;8.680;2022-08-19T00:24:31;22.17;;;17.20;;
5688;SDS011;2869;50.432;8.680;2022-08-19T00:26:58;23.70;;;16.90;;
5688;SDS011;2869;50.432;8.680;2022-08-19T00:29:28;27.77;;;17.67;;
5688;SDS011;2869;50.432;8.680;2022-08-19T00:31:55;24.97;;;16.30;;
5688;SDS011;2869;50.432;8.680;2022-08-19T00:34:23;25.90;;;16.50;;
5688;SDS011;2869;50.432;8.680;2022-08-19T00:36:51;22.23;;;16.40;;
5688;SDS011;2869;50.432;8.680;2022-08-19T00:39:17;24.37;;;17.07;;
5688;SDS011;2869;50.432;8.680;2022-08-19T00:41:44;25.90;;;17.30;;
5688;SDS011;2869;50.432;8.680;2022-08-19T00:44:13;24.73;;;16.23;;
5688;SDS011;2869;50.432;8.680;2022-08-19T00:46:44;27.60;;;17.60;;
5688;SDS011;2869;50.432;8.680;2022-08-19T00:49:14;22.37;;;17.50;;
5688;SDS011;2869;50.432;8.680;2022-08-19T00:51:45;25.67;;;16.90;;
5688;SDS011;2869;50.432;8.680;2022-08-19T00:54:14;24.57;;;16.53;;
5688;SDS011;2869;50.432;8.680;2022-08-19T00:56:41;26.73;;;18.10;;
5688;SDS011;2869;50.432;8.680;2022-08-19T00:59:09;21.90;;;16.10;;
5688;SDS011;2869;50.432;8.680;2022-08-19T01:01:36;23.37;;;16.60;;
5688;SDS011;2869;50.432;8.680;2022-08-19T01:04:05;25.10;;;16.47;;
5688;SDS011;2869;50.432;8.680;2022-08-19T01:06:32;23.27;;;16.73;;
5688;SDS011;2869;50.432;8.680;2022-08-19T01:09:01;26.60;;;17.70;;
5688;SDS011;2869;50.432;8.680;2022-08-19T01:11:28;25.50;;;16.63;;
5688;SDS011;2869;50.432;8.680;2022-08-19T01:13:57;23.60;;;17.40;;
5688;SDS011;2869;50.432;8.680;2022-08-19T01:16:25;23.33;;;16.47;;
5688;SDS011;2869;50.432;8.680;2022-08-19T01:18:54;25.77;;;17.50;;
5688;SDS011;2869;50.432;8.680;2022-08-19T01:21:25;22.77;;;16.38;;
5688;SDS011;2869;50.432;8.680;2022-08-19T01:23:58;25.10;;;17.10;;
5688;SDS011;2869;50.432;8.680;2022-08-19T01:26:25;27.87;;;16.10;;
5688;SDS011;2869;50.432;8.680;2022-08-19T01:28:54;22.83;;;16.80;;
5688;SDS011;2869;50.432;8.680;2022-08-19T01:31:23;24.00;;;17.60;;
5688;SDS011;2869;50.432;8.680;2022-08-19T01:33:52;20.53;;;15.67;;
5688;SDS011;2869;50.432;8.680;2022-08-19T01:36:22;21.27;;;16.50;;
5688;SDS011;2869;50.432;8.680;2022-08-19T01:38:51;22.63;;;16.17;;
5688;SDS011;2869;50.432;8.680;2022-08-19T01:41:19;21.03;;;15.80;;
5688;SDS011;2869;50.432;8.680;2022-08-19T01:43:48;21.90;;;15.30;;
5688;SDS011;2869;50.432;8.680;2022-08-19T01:46:15;23.80;;;15.40;;
5688;SDS011;2869;50.432;8.680;2022-08-19T01:48:42;19.87;;;14.80;;
5688;SDS011;2869;50.432;8.680;2022-08-19T01:51:10;19.38;;;14.82;;
5688;SDS011;2869;50.432;8.680;2022-08-19T01:53:37;20.80;;;15.13;;
5688;SDS011;2869;50.432;8.680;2022-08-19T01:56:04;22.93;;;14.90;;
5688;SDS011;2869;50.432;8.680;2022-08-19T01:58:34;19.40;;;14.50;;
5688;SDS011;2869;50.432;8.680;2022-08-19T02:01:04;19.33;;;15.00;;
5688;SDS011;2869;50.432;8.680;2022-08-19T02:03:32;20.87;;;14.13;;
5688;SDS011;2869;50.432;8.680;2022-08-19T02:06:00;20.63;;;15.13;;
5688;SDS011;2869;50.432;8.680;2022-08-19T02:08:29;19.70;;;14.43;;
5688;SDS011;2869;50.432;8.680;2022-08-19T02:10:57;21.07;;;14.50;;
5688;SDS011;2869;50.432;8.680;2022-08-19T02:13:24;21.97;;;15.43;;
5688;SDS011;2869;50.432;8.680;2022-08-19T02:15:53;21.13;;;14.13;;
5688;SDS011;2869;50.432;8.680;2022-08-19T02:18:20;23.87;;;14.60;;
5688;SDS011;2869;50.432;8.680;2022-08-19T02:20:46;21.37;;;14.10;;
5688;SDS011;2869;50.432;8.680;2022-08-19T02:23:14;18.83;;;14.70;;
5688;SDS011;2869;50.432;8.680;2022-08-19T02:25:42;18.33;;;13.97;;
5688;SDS011;2869;50.432;8.680;2022-08-19T02:28:09;18.77;;;15.00;;
5688;SDS011;2869;50.432;8.680;2022-08-19T02:30:36;20.13;;;15.10;;
5688;SDS011;2869;50.432;8.680;2022-08-19T02:33:05;19.63;;;14.70;;
5688;SDS011;2869;50.432;8.680;2022-08-19T02:35:31;17.48;;;13.90;;
5688;SDS011;2869;50.432;8.680;2022-08-19T02:37:58;20.17;;;14.47;;
5688;SDS011;2869;50.432;8.680;2022-08-19T02:40:47;21.63;;;13.23;;
5688;SDS011;2869;50.432;8.680;2022-08-19T02:43:16;19.80;;;13.70;;
5688;SDS011;2869;50.432;8.680;2022-08-19T02:45:45;25.40;;;14.10;;
5688;SDS011;2869;50.432;8.680;2022-08-19T02:48:14;21.53;;;14.33;;
5688;SDS011;2869;50.432;8.680;2022-08-19T02:50:42;23.50;;;14.47;;
5688;SDS011;2869;50.432;8.680;2022-08-19T02:53:09;23.13;;;15.00;;
5688;SDS011;2869;50.432;8.680;2022-08-19T02:55:41;18.00;;;14.57;;
5688;SDS011;2869;50.432;8.680;2022-08-19T02:58:09;36.73;;;15.33;;
5688;SDS011;2869;50.432;8.680;2022-08-19T03:00:40;21.73;;;15.10;;
5688;SDS011;2869;50.432;8.680;2022-08-19T03:03:08;28.73;;;14.70;;
5688;SDS011;2869;50.432;8.680;2022-08-19T03:05:36;23.83;;;15.10;;
5688;SDS011;2869;50.432;8.680;2022-08-19T03:08:03;22.10;;;13.50;;
5688;SDS011;2869;50.432;8.680;2022-08-19T03:10:30;24.83;;;14.60;;
5688;SDS011;2869;50.432;8.680;2022-08-19T03:12:57;19.95;;;13.73;;
5688;SDS011;2869;50.432;8.680;2022-08-19T03:15:24;17.73;;;13.50;;
5688;SDS011;2869;50.432;8.680;2022-08-19T03:17:51;20.97;;;13.70;;
5688;SDS011;2869;50.432;8.680;2022-08-19T03:20:18;18.27;;;13.73;;
5688;SDS011;2869;50.432;8.680;2022-08-19T03:22:46;17.90;;;13.57;;
5688;SDS011;2869;50.432;8.680;2022-08-19T03:25:12;17.60;;;13.17;;
5688;SDS011;2869;50.432;8.680;2022-08-19T03:27:39;22.20;;;13.87;;
5688;SDS011;2869;50.432;8.680;2022-08-19T03:30:06;20.13;;;14.00;;
5688;SDS011;2869;50.432;8.680;2022-08-19T03:32:33;17.17;;;14.20;;
5688;SDS011;2869;50.432;8.680;2022-08-19T03:35:00;24.67;;;15.33;;
5688;SDS011;2869;50.432;8.680;2022-08-19T03:37:27;18.97;;;13.47;;
5688;SDS011;2869;50.432;8.680;2022-08-19T03:39:55;18.38;;;13.35;;
5688;SDS011;2869;50.432;8.680;2022-08-19T03:42:22;18.80;;;13.83;;
5688;SDS011;2869;50.432;8.680;2022-08-19T03:44:49;19.43;;;14.50;;
5688;SDS011;2869;50.432;8.680;2022-08-19T03:47:17;18.60;;;14.43;;
5688;SDS011;2869;50.432;8.680;2022-08-19T03:49:44;18.60;;;13.20;;
5688;SDS011;2869;50.432;8.680;2022-08-19T03:52:11;21.53;;;14.37;;
5688;SDS011;2869;50.432;8.680;2022-08-19T03:54:38;20.17;;;15.00;;
5688;SDS011;2869;50.432;8.680;2022-08-19T03:57:06;18.13;;;14.43;;
5688;SDS011;2869;50.432;8.680;2022-08-19T03:59:34;18.07;;;13.37;;
5688;SDS011;2869;50.432;8.680;2022-08-19T04:02:04;18.00;;;13.60;;
5688;SDS011;2869;50.432;8.680;2022-08-19T04:04:34;21.37;;;14.97;;
5688;SDS011;2869;50.432;8.680;2022-08-19T04:07:00;18.73;;;14.80;;
5688;SDS011;2869;50.432;8.680;2022-08-19T04:09:27;22.30;;;13.98;;
5688;SDS011;2869;50.432;8.680;2022-08-19T04:11:55;20.57;;;14.83;;
5688;SDS011;2869;50.432;8.680;2022-08-19T04:14:25;20.67;;;14.63;;
5688;SDS011;2869;50.432;8.680;2022-08-19T04:16:55;19.30;;;13.97;;
5688;SDS011;2869;50.432;8.680;2022-08-19T04:19:22;19.40;;;12.50;;
5688;SDS011;2869;50.432;8.680;2022-08-19T04:21:49;19.17;;;14.03;;
5688;SDS011;2869;50.432;8.680;2022-08-19T04:24:18;18.60;;;13.93;;
5688;SDS011;2869;50.432;8.680;2022-08-19T04:26:45;22.50;;;14.37;;
5688;SDS011;2869;50.432;8.680;2022-08-19T04:29:13;17.63;;;13.50;;
5688;SDS011;2869;50.432;8.680;2022-08-19T04:31:43;18.40;;;14.00;;
5688;SDS011;2869;50.432;8.680;2022-08-19T04:34:12;19.80;;;14.33;;
5688;SDS011;2869;50.432;8.680;2022-08-19T04:36:42;19.83;;;13.43;;
5688;SDS011;2869;50.432;8.680;2022-08-19T04:39:11;16.27;;;13.02;;
5688;SDS011;2869;50.432;8.680;2022-08-19T04:41:39;20.33;;;13.70;;
5688;SDS011;2869;50.432;8.680;2022-08-19T04:44:23;19.27;;;15.10;;
5688;SDS011;2869;50.432;8.680;2022-08-19T04:46:51;18.10;;;14.00;;
5688;SDS011;2869;50.432;8.680;2022-08-19T04:49:19;24.47;;;14.47;;
5688;SDS011;2869;50.432;8.680;2022-08-19T04:51:48;17.00;;;13.90;;
5688;SDS011;2869;50.432;8.680;2022-08-19T04:54:16;19.77;;;14.10;;
5688;SDS011;2869;50.432;8.680;2022-08-19T04:56:45;21.90;;;14.70;;
5688;SDS011;2869;50.432;8.680;2022-08-19T04:59:14;18.50;;;14.37;;
5688;SDS011;2869;50.432;8.680;2022-08-19T05:01:42;17.17;;;13.80;;
5688;SDS011;2869;50.432;8.680;2022-08-19T05:04:10;18.40;;;13.83;;
5688;SDS011;2869;50.432;8.680;2022-08-19T05:06:38;21.20;;;13.83;;
5688;SDS011;2869;50.432;8.680;2022-08-19T05:09:05;17.83;;;13.33;;
5688;SDS011;2869;50.432;8.680;2022-08-19T05:11:33;16.50;;;13.40;;
5688;SDS011;2869;50.432;8.680;2022-08-19T05:14:04;19.38;;;13.38;;
5688;SDS011;2869;50.432;8.680;2022-08-19T05:16:31;20.80;;;14.50;;
5688;SDS011;2869;50.432;8.680;2022-08-19T05:18:57;19.48;;;14.02;;
5688;SDS011;2869;50.432;8.680;2022-08-19T05:21:43;17.37;;;13.53;;
5688;SDS011;2869;50.432;8.680;2022-08-19T05:24:28;19.43;;;14.30;;
5688;SDS011;2869;50.432;8.680;2022-08-19T05:26:55;17.17;;;12.93;;
5688;SDS011;2869;50.432;8.680;2022-08-19T05:29:23;26.42;;;13.23;;
5688;SDS011;2869;50.432;8.680;2022-08-19T05:31:52;16.97;;;12.73;;
5688;SDS011;2869;50.432;8.680;2022-08-19T05:34:20;17.33;;;13.00;;
5688;SDS011;2869;50.432;8.680;2022-08-19T05:36:51;20.20;;;14.10;;
5688;SDS011;2869;50.432;8.680;2022-08-19T05:39:22;17.80;;;13.10;;
5688;SDS011;2869;50.432;8.680;2022-08-19T05:41:51;14.50;;;12.27;;
5688;SDS011;2869;50.432;8.680;2022-08-19T05:44:19;18.30;;;12.53;;
5688;SDS011;2869;50.432;8.680;2022-08-19T05:46:47;17.83;;;13.43;;
5688;SDS011;2869;50.432;8.680;2022-08-19T05:49:14;13.37;;;11.10;;
5688;SDS011;2869;50.432;8.680;2022-08-19T05:51:41;20.43;;;12.20;;
5688;SDS011;2869;50.432;8.680;2022-08-19T05:54:10;16.65;;;11.77;;
5688;SDS011;2869;50.432;8.680;2022-08-19T05:56:38;21.13;;;11.30;;
5688;SDS011;2869;50.432;8.680;2022-08-19T05:59:06;13.57;;;11.07;;
5688;SDS011;2869;50.432;8.680;2022-08-19T06:01:36;15.73;;;10.82;;
5688;SDS011;2869;50.432;8.680;2022-08-19T06:04:04;17.17;;;10.17;;
5688;SDS011;2869;50.432;8.680;2022-08-19T06:06:31;14.33;;;10.37;;
5688;SDS011;2869;50.432;8.680;2022-08-19T06:08:59;10.10;;;9.10;;
5688;SDS011;2869;50.432;8.680;2022-08-19T06:11:33;13.27;;;10.10;;
5688;SDS011;2869;50.432;8.680;2022-08-19T06:14:02;12.47;;;9.40;;
5688;SDS011;2869;50.432;8.680;2022-08-19T06:16:33;19.63;;;9.30;;
5688;SDS011;2869;50.432;8.680;2022-08-19T06:19:00;13.73;;;9.40;;
5688;SDS011;2869;50.432;8.680;2022-08-19T06:21:30;13.57;;;8.57;;
5688;SDS011;2869;50.432;8.680;2022-08-19T06:23:57;11.57;;;8.30;;
5688;SDS011;2869;50.432;8.680;2022-08-19T06:26:25;15.10;;;9.27;;
5688;SDS011;2869;50.432;8.680;2022-08-19T06:28:53;11.60;;;8.40;;
5688;SDS011;2869;50.432;8.680;2022-08-19T06:31:21;8.90;;;8.05;;
5688;SDS011;2869;50.432;8.680;2022-08-19T06:33:49;10.67;;;9.00;;
5688;SDS011;2869;50.432;8.680;2022-08-19T06:36:17;12.27;;;8.18;;
5688;SDS011;2869;50.432;8.680;2022-08-19T06:38:45;11.07;;;9.00;;
5688;SDS011;2869;50.432;8.680;2022-08-19T06:41:11;10.47;;;8.73;;
5688;SDS011;2869;50.432;8.680;2022-08-19T06:43:38;10.43;;;8.67;;
5688;SDS011;2869;50.432;8.680;2022-08-19T06:46:10;9.50;;;8.37;;
5688;SDS011;2869;50.432;8.680;2022-08-19T06:48:38;11.17;;;8.20;;
5688;SDS011;2869;50.432;8.680;2022-08-19T06:51:05;10.48;;;8.13;;
5688;SDS011;2869;50.432;8.680;2022-08-19T06:53:32;10.80;;;8.30;;
5688;SDS011;2869;50.432;8.680;2022-08-19T06:55:58;11.60;;;7.40;;
5688;SDS011;2869;50.432;8.680;2022-08-19T06:58:27;12.77;;;8.20;;
5688;SDS011;2869;50.432;8.680;2022-08-19T07:00:56;8.17;;;6.97;;
5688;SDS011;2869;50.432;8.680;2022-08-19T07:03:27;13.87;;;7.90;;
5688;SDS011;2869;50.432;8.680;2022-08-19T07:05:56;9.23;;;6.78;;
5688;SDS011;2869;50.432;8.680;2022-08-19T07:08:23;9.27;;;7.10;;
5688;SDS011;2869;50.432;8.680;2022-08-19T07:10:52;9.07;;;6.60;;
5688;SDS011;2869;50.432;8.680;2022-08-19T07:13:19;8.90;;;6.27;;
5688;SDS011;2869;50.432;8.680;2022-08-19T07:15:46;7.40;;;6.10;;
5688;SDS011;2869;50.432;8.680;2022-08-19T07:18:15;9.87;;;6.87;;
5688;SDS011;2869;50.432;8.680;2022-08-19T07:20:43;9.53;;;5.97;;
5688;SDS011;2869;50.432;8.680;2022-08-19T07:23:10;6.70;;;5.53;;
5688;SDS011;2869;50.432;8.680;2022-08-19T07:25:37;8.70;;;6.10;;
5688;SDS011;2869;50.432;8.680;2022-08-19T07:28:04;10.10;;;5.90;;
5688;SDS011;2869;50.432;8.680;2022-08-19T07:30:32;8.57;;;6.00;;
5688;SDS011;2869;50.432;8.680;2022-08-19T07:33:01;7.27;;;5.50;;
5688;SDS011;2869;50.432;8.680;2022-08-19T07:35:28;9.23;;;5.97;;
5688;SDS011;2869;50.432;8.680;2022-08-19T07:37:58;7.23;;;5.77;;
5688;SDS011;2869;50.432;8.680;2022-08-19T07:40:27;7.80;;;5.50;;
5688;SDS011;2869;50.432;8.680;2022-08-19T07:42:54;6.30;;;5.70;;
5688;SDS011;2869;50.432;8.680;2022-08-19T07:45:21;6.80;;;5.00;;
5688;SDS011;2869;50.432;8.680;2022-08-19T07:47:47;7.57;;;5.37;;
5688;SDS011;2869;50.432;8.680;2022-08-19T07:50:15;5.80;;;5.30;;
5688;SDS011;2869;50.432;8.680;2022-08-19T07:52:43;7.67;;;5.60;;
5688;SDS011;2869;50.432;8.680;2022-08-19T07:55:11;10.50;;;5.53;;
5688;SDS011;2869;50.432;8.680;2022-08-19T07:57:38;6.80;;;5.40;;
5688;SDS011;2869;50.432;8.680;2022-08-19T08:00:05;9.90;;;6.30;;
5688;SDS011;2869;50.432;8.680;2022-08-19T08:02:33;10.90;;;6.77;;
5688;SDS011;2869;50.432;8.680;2022-08-19T08:04:59;13.77;;;7.17;;
5688;SDS011;2869;50.432;8.680;2022-08-19T08:07:43;9.07;;;6.07;;
5688;SDS011;2869;50.432;8.680;2022-08-19T08:10:29;9.93;;;7.77;;
5688;SDS011;2869;50.432;8.680;2022-08-19T08:12:56;12.50;;;8.57;;
5688;SDS011;2869;50.432;8.680;2022-08-19T08:15:22;7.20;;;6.50;;
5688;SDS011;2869;50.432;8.680;2022-08-19T08:17:49;8.10;;;6.97;;
5688;SDS011;2869;50.432;8.680;2022-08-19T08:20:16;12.80;;;7.43;;
5688;SDS011;2869;50.432;8.680;2022-08-19T08:22:43;9.60;;;6.50;;
5688;SDS011;2869;50.432;8.680;2022-08-19T08:25:29;11.20;;;6.97;;
5688;SDS011;2869;50.432;8.680;2022-08-19T08:27:57;7.30;;;6.60;;
5688;SDS011;2869;50.432;8.680;2022-08-19T08:30:26;10.00;;;6.90;;
5688;SDS011;2869;50.432;8.680;2022-08-19T08:32:53;8.10;;;6.63;;
5688;SDS011;2869;50.432;8.680;2022-08-19T08:35:22;9.13;;;6.60;;
5688;SDS011;2869;50.432;8.680;2022-08-19T08:37:50;14.53;;;7.87;;
5688;SDS011;2869;50.432;8.680;2022-08-19T08:40:20;8.17;;;7.37;;
5688;SDS011;2869;50.432;8.680;2022-08-19T08:42:55;11.33;;;6.60;;
5688;SDS011;2869;50.432;8.680;2022-08-19T08:45:27;8.40;;;7.13;;
5688;SDS011;2869;50.432;8.680;2022-08-19T08:47:57;9.80;;;6.50;;
5688;SDS011;2869;50.432;8.680;2022-08-19T08:50:32;12.27;;;6.87;;
5688;SDS011;2869;50.432;8.680;2022-08-19T08:53:02;7.10;;;6.40;;
5688;SDS011;2869;50.432;8.680;2022-08-19T08:55:31;7.63;;;6.30;;
5688;SDS011;2869;50.432;8.680;2022-08-19T08:58:00;9.50;;;7.30;;
5688;SDS011;2869;50.432;8.680;2022-08-19T09:00:32;12.73;;;6.53;;
5688;SDS011;2869;50.432;8.680;2022-08-19T09:03:01;12.07;;;7.63;;
5688;SDS011;2869;50.432;8.680;2022-08-19T09:05:33;7.57;;;6.30;;
5688;SDS011;2869;50.432;8.680;2022-08-19T09:08:08;6.53;;;5.87;;
5688;SDS011;2869;50.432;8.680;2022-08-19T09:10:43;9.20;;;5.30;;
5688;SDS011;2869;50.432;8.680;2022-08-19T09:13:16;6.67;;;5.70;;
5688;SDS011;2869;50.432;8.680;2022-08-19T09:15:49;8.30;;;6.10;;
5688;SDS011;2869;50.432;8.680;2022-08-19T09:18:19;11.63;;;5.70;;
5688;SDS011;2869;50.432;8.680;2022-08-19T09:20:46;9.30;;;6.97;;
5688;SDS011;2869;50.432;8.680;2022-08-19T09:23:13;13.83;;;5.50;;
5688;SDS011;2869;50.432;8.680;2022-08-19T09:25:40;5.67;;;5.10;;
5688;SDS011;2869;50.432;8.680;2022-08-19T09:28:07;8.50;;;5.53;;
5688;SDS011;2869;50.432;8.680;2022-08-19T09:30:38;9.30;;;5.73;;
5688;SDS011;2869;50.432;8.680;2022-08-19T09:33:06;5.50;;;5.00;;
5688;SDS011;2869;50.432;8.680;2022-08-19T09:35:33;8.95;;;5.30;;
5688;SDS011;2869;50.432;8.680;2022-08-19T09:38:00;5.33;;;4.37;;
5688;SDS011;2869;50.432;8.680;2022-08-19T09:40:27;7.60;;;5.37;;
5688;SDS011;2869;50.432;8.680;2022-08-19T09:42:55;5.47;;;4.97;;
5688;SDS011;2869;50.432;8.680;2022-08-19T09:45:27;5.13;;;4.63;;
5688;SDS011;2869;50.432;8.680;2022-08-19T09:47:55;6.20;;;5.03;;
5688;SDS011;2869;50.432;8.680;2022-08-19T09:50:22;5.57;;;5.07;;
5688;SDS011;2869;50.432;8.680;2022-08-19T09:52:50;6.83;;;5.27;;
5688;SDS011;2869;50.432;8.680;2022-08-19T09:55:18;12.87;;;4.90;;
5688;SDS011;2869;50.432;8.680;2022-08-19T09:57:45;6.50;;;5.03;;
5688;SDS011;2869;50.432;8.680;2022-08-19T10:00:12;6.00;;;5.33;;
5688;SDS011;2869;50.432;8.680;2022-08-19T10:02:39;6.63;;;4.90;;
5688;SDS011;2869;50.432;8.680;2022-08-19T10:05:07;5.73;;;5.17;;
5688;SDS011;2869;50.432;8.680;2022-08-19T10:07:51;6.87;;;5.43;;
5688;SDS011;2869;50.432;8.680;2022-08-19T10:10:19;7.50;;;5.53;;
5688;SDS011;2869;50.432;8.680;2022-08-19T10:12:45;9.50;;;5.13;;
5688;SDS011;2869;50.432;8.680;2022-08-19T10:15:12;7.97;;;5.10;;
5688;SDS011;2869;50.432;8.680;2022-08-19T10:17:39;6.67;;;5.47;;
5688;SDS011;2869;50.432;8.680;2022-08-19T10:20:07;6.47;;;4.83;;
5688;SDS011;2869;50.432;8.680;2022-08-19T10:22:35;5.83;;;5.20;;
5688;SDS011;2869;50.432;8.680;2022-08-19T10:25:02;7.10;;;4.80;;
5688;SDS011;2869;50.432;8.680;2022-08-19T10:27:30;9.37;;;5.17;;
5688;SDS011;2869;50.432;8.680;2022-08-19T10:29:57;5.00;;;4.00;;
5688;SDS011;2869;50.432;8.680;2022-08-19T10:32:24;5.23;;;4.80;;
5688;SDS011;2869;50.432;8.680;2022-08-19T10:34:50;5.57;;;5.07;;
5688;SDS011;2869;50.432;8.680;2022-08-19T10:37:19;5.10;;;4.60;;
5688;SDS011;2869;50.432;8.680;2022-08-19T10:39:45;5.40;;;4.90;;
5688;SDS011;2869;50.432;8.680;2022-08-19T10:42:13;5.47;;;5.07;;
5688;SDS011;2869;50.432;8.680;2022-08-19T10:44:41;7.37;;;5.23;;
5688;SDS011;2869;50.432;8.680;2022-08-19T10:47:08;5.70;;;5.05;;
5688;SDS011;2869;50.432;8.680;2022-08-19T10:49:35;5.40;;;5.00;;
5688;SDS011;2869;50.432;8.680;2022-08-19T10:52:23;7.28;;;5.72;;
5688;SDS011;2869;50.432;8.680;2022-08-19T10:54:58;7.67;;;5.43;;
5688;SDS011;2869;50.432;8.680;2022-08-19T10:57:42;7.10;;;5.32;;
5688;SDS011;2869;50.432;8.680;2022-08-19T11:00:10;7.07;;;5.80;;
5688;SDS011;2869;50.432;8.680;2022-08-19T11:02:39;5.30;;;4.88;;
5688;SDS011;2869;50.432;8.680;2022-08-19T11:05:06;10.93;;;5.47;;
5688;SDS011;2869;50.432;8.680;2022-08-19T11:07:37;6.17;;;5.57;;
5688;SDS011;2869;50.432;8.680;2022-08-19T11:10:04;6.97;;;5.63;;
5688;SDS011;2869;50.432;8.680;2022-08-19T11:12:31;7.00;;;6.30;;
5688;SDS011;2869;50.432;8.680;2022-08-19T11:14:58;9.13;;;6.80;;
5688;SDS011;2869;50.432;8.680;2022-08-19T11:17:25;7.87;;;7.07;;
5688;SDS011;2869;50.432;8.680;2022-08-19T11:19:51;6.80;;;6.17;;
5688;SDS011;2869;50.432;8.680;2022-08-19T11:22:18;7.77;;;6.97;;
5688;SDS011;2869;50.432;8.680;2022-08-19T11:24:46;7.90;;;7.20;;
5688;SDS011;2869;50.432;8.680;2022-08-19T11:27:12;8.63;;;7.73;;
5688;SDS011;2869;50.432;8.680;2022-08-19T11:29:39;7.40;;;6.60;;
5688;SDS011;2869;50.432;8.680;2022-08-19T11:32:07;8.17;;;6.67;;
5688;SDS011;2869;50.432;8.680;2022-08-19T11:34:36;9.30;;;7.93;;
5688;SDS011;2869;50.432;8.680;2022-08-19T11:37:03;10.63;;;7.40;;
5688;SDS011;2869;50.432;8.680;2022-08-19T11:39:31;9.93;;;6.47;;
5688;SDS011;2869;50.432;8.680;2022-08-19T11:42:02;8.10;;;6.20;;
5688;SDS011;2869;50.432;8.680;2022-08-19T11:44:49;6.23;;;5.80;;
5688;SDS011;2869;50.432;8.680;2022-08-19T11:47:16;7.27;;;6.10;;
5688;SDS011;2869;50.432;8.680;2022-08-19T11:49:43;6.50;;;5.90;;
5688;SDS011;2869;50.432;8.680;2022-08-19T11:52:09;7.13;;;5.23;;
5688;SDS011;2869;50.432;8.680;2022-08-19T11:54:36;5.87;;;5.30;;
5688;SDS011;2869;50.432;8.680;2022-08-19T11:57:04;6.70;;;5.30;;
5688;SDS011;2869;50.432;8.680;2022-08-19T11:59:31;8.83;;;5.40;;
5688;SDS011;2869;50.432;8.680;2022-08-19T12:01:57;6.53;;;5.90;;
5688;SDS011;2869;50.432;8.680;2022-08-19T12:04:24;8.63;;;7.50;;
5688;SDS011;2869;50.432;8.680;2022-08-19T12:06:51;9.73;;;7.63;;
5688;SDS011;2869;50.432;8.680;2022-08-19T12:09:18;9.40;;;8.45;;
5688;SDS011;2869;50.432;8.680;2022-08-19T12:11:44;8.70;;;7.60;;
5688;SDS011;2869;50.432;8.680;2022-08-19T12:14:13;7.50;;;6.63;;
5688;SDS011;2869;50.432;8.680;2022-08-19T12:16:40;6.47;;;5.90;;
5688;SDS011;2869;50.432;8.680;2022-08-19T12:19:07;8.23;;;6.63;;
5688;SDS011;2869;50.432;8.680;2022-08-19T12:21:34;6.95;;;5.68;;
5688;SDS011;2869;50.432;8.680;2022-08-19T12:24:02;5.90;;;5.40;;
5688;SDS011;2869;50.432;8.680;2022-08-19T12:26:30;6.10;;;5.50;;
5688;SDS011;2869;50.432;8.680;2022-08-19T12:28:57;7.17;;;6.57;;
5688;SDS011;2869;50.432;8.680;2022-08-19T12:31:26;7.40;;;6.80;;
5688;SDS011;2869;50.432;8.680;2022-08-19T12:33:53;6.83;;;6.27;;
5688;SDS011;2869;50.432;8.680;2022-08-19T12:36:20;7.73;;;6.90;;
5688;SDS011;2869;50.432;8.680;2022-08-19T12:38:48;8.27;;;7.53;;
5688;SDS011;2869;50.432;8.680;2022-08-19T12:41:15;9.57;;;7.57;;
5688;SDS011;2869;50.432;8.680;2022-08-19T12:43:43;19.50;;;7.73;;
5688;SDS011;2869;50.432;8.680;2022-08-19T12:46:10;8.77;;;7.73;;
5688;SDS011;2869;50.432;8.680;2022-08-19T12:48:39;10.60;;;8.50;;
5688;SDS011;2869;50.432;8.680;2022-08-19T12:51:08;19.33;;;9.15;;
5688;SDS011;2869;50.432;8.680;2022-08-19T12:53:37;9.15;;;8.27;;
5688;SDS011;2869;50.432;8.680;2022-08-19T12:56:04;11.70;;;8.47;;
5688;SDS011;2869;50.432;8.680;2022-08-19T12:58:32;9.40;;;8.50;;
5688;SDS011;2869;50.432;8.680;2022-08-19T13:00:59;11.77;;;8.40;;
5688;SDS011;2869;50.432;8.680;2022-08-19T13:03:26;9.25;;;8.13;;
5688;SDS011;2869;50.432;8.680;2022-08-19T13:05:55;10.13;;;8.90;;
5688;SDS011;2869;50.432;8.680;2022-08-19T13:08:22;9.40;;;8.50;;
5688;SDS011;2869;50.432;8.680;2022-08-19T13:10:49;13.97;;;8.40;;
5688;SDS011;2869;50.432;8.680;2022-08-19T13:13:15;12.50;;;8.13;;
5688;SDS011;2869;50.432;8.680;2022-08-19T13:15:42;11.53;;;8.40;;
5688;SDS011;2869;50.432;8.680;2022-08-19T13:18:10;8.90;;;8.00;;
5688;SDS011;2869;50.432;8.680;2022-08-19T13:20:38;9.73;;;8.40;;
5688;SDS011;2869;50.432;8.680;2022-08-19T13:23:07;10.30;;;9.30;;
5688;SDS011;2869;50.432;8.680;2022-08-19T13:25:34;9.30;;;8.33;;
5688;SDS011;2869;50.432;8.680;2022-08-19T13:28:01;10.83;;;8.63;;
5688;SDS011;2869;50.432;8.680;2022-08-19T13:30:28;13.77;;;8.30;;
5688;SDS011;2869;50.432;8.680;2022-08-19T13:33:13;9.40;;;8.40;;
5688;SDS011;2869;50.432;8.680;2022-08-19T13:35:40;10.30;;;8.97;;
5688;SDS011;2869;50.432;8.680;2022-08-19T13:38:10;11.47;;;8.30;;
5688;SDS011;2869;50.432;8.680;2022-08-19T13:40:38;9.13;;;8.23;;
5688;SDS011;2869;50.432;8.680;2022-08-19T13:43:06;11.00;;;7.67;;
5688;SDS011;2869;50.432;8.680;2022-08-19T13:45:34;7.78;;;7.07;;
5688;SDS011;2869;50.432;8.680;2022-08-19T13:48:01;8.77;;;7.80;;
5688;SDS011;2869;50.432;8.680;2022-08-19T13:50:32;9.70;;;7.07;;
5688;SDS011;2869;50.432;8.680;2022-08-19T13:52:59;8.27;;;7.50;;
5688;SDS011;2869;50.432;8.680;2022-08-19T13:55:30;7.50;;;6.80;;
5688;SDS011;2869;50.432;8.680;2022-08-19T13:57:58;9.32;;;7.07;;
5688;SDS011;2869;50.432;8.680;2022-08-19T14:00:27;8.60;;;7.80;;
5688;SDS011;2869;50.432;8.680;2022-08-19T14:02:57;9.63;;;7.50;;
5688;SDS011;2869;50.432;8.680;2022-08-19T14:05:25;9.93;;;7.07;;
5688;SDS011;2869;50.432;8.680;2022-08-19T14:07:53;9.43;;;7.95;;
5688;SDS011;2869;50.432;8.680;2022-08-19T14:10:20;9.65;;;7.40;;
5688;SDS011;2869;50.432;8.680;2022-08-19T14:12:49;9.15;;;7.75;;
5688;SDS011;2869;50.432;8.680;2022-08-19T14:15:20;11.20;;;7.45;;
5688;SDS011;2869;50.432;8.680;2022-08-19T14:17:48;8.30;;;7.63;;
5688;SDS011;2869;50.432;8.680;2022-08-19T14:20:15;9.10;;;7.73;;
5688;SDS011;2869;50.432;8.680;2022-08-19T14:22:42;8.80;;;8.00;;
5688;SDS011;2869;50.432;8.680;2022-08-19T14:25:10;9.13;;;7.83;;
5688;SDS011;2869;50.432;8.680;2022-08-19T14:27:39;9.00;;;8.20;;
5688;SDS011;2869;50.432;8.680;2022-08-19T14:30:10;8.17;;;7.37;;
5688;SDS011;2869;50.432;8.680;2022-08-19T14:32:40;7.77;;;6.90;;
5688;SDS011;2869;50.432;8.680;2022-08-19T14:35:08;7.85;;;7.15;;
5688;SDS011;2869;50.432;8.680;2022-08-19T14:37:37;7.77;;;6.97;;
5688;SDS011;2869;50.432;8.680;2022-08-19T14:40:05;7.80;;;7.10;;
5688;SDS011;2869;50.432;8.680;2022-08-19T14:42:33;11.70;;;6.57;;
5688;SDS011;2869;50.432;8.680;2022-08-19T14:44:59;9.45;;;6.90;;
5688;SDS011;2869;50.432;8.680;2022-08-19T14:47:28;8.30;;;7.43;;
5688;SDS011;2869;50.432;8.680;2022-08-19T14:49:54;7.30;;;6.60;;
5688;SDS011;2869;50.432;8.680;2022-08-19T14:52:21;8.60;;;6.68;;
5688;SDS011;2869;50.432;8.680;2022-08-19T14:54:48;10.80;;;6.50;;
5688;SDS011;2869;50.432;8.680;2022-08-19T14:57:14;6.97;;;6.47;;
5688;SDS011;2869;50.432;8.680;2022-08-19T14:59:41;8.13;;;6.73;;
5688;SDS011;2869;50.432;8.680;2022-08-19T15:02:08;7.32;;;6.68;;
5688;SDS011;2869;50.432;8.680;2022-08-19T15:04:36;6.63;;;6.03;;
5688;SDS011;2869;50.432;8.680;2022-08-19T15:07:04;6.60;;;6.00;;
5688;SDS011;2869;50.432;8.680;2022-08-19T15:09:31;7.70;;;6.30;;